OAL893 SLPO-SBCG
Flight info
| Callsign | OAL893 |
|---|---|
| Flight time | 1h 55m |
| Altitude | 37000 |
| Route | ALC UW14 VIR UM411 EVLOL UM411 ATERU UZ42 IRIPI |
| Aircraft | A310/H-SDFGHIM1RTUWXY/LB1 |
Departure
| Time | 2026-05-08 18:29 |
|---|---|
| Airport | Capitan Nicolas Rojas Airport (SLPO) |
Arrival
| Time | 2026-05-08 20:25 |
|---|---|
| Airport | Campo Grande Airport (SBCG) |
| Time | Latitude | Longitude | Altitude | Speed | Heading |
|---|---|---|---|---|---|
| 2026-05-08 17:54 | -19.54294 | -65.72053 | 12675 ft | 0 kts | 231° |
| 2026-05-08 17:56 | -19.54296 | -65.72068 | 12679 ft | 3 kts | 278° |
| 2026-05-08 17:56 | -19.54294 | -65.72086 | 12677 ft | 3 kts | 257° |
| 2026-05-08 17:56 | -19.54310 | -65.72087 | 12678 ft | 3 kts | 146° |
| 2026-05-08 17:56 | -19.54306 | -65.72070 | 12678 ft | 3 kts | 51° |
| 2026-05-08 17:57 | -19.54304 | -65.72067 | 12678 ft | 0 kts | 44° |
| 2026-05-08 18:22 | -19.54302 | -65.72066 | 12679 ft | 2 kts | 44° |
| 2026-05-08 18:22 | -19.54275 | -65.72042 | 12673 ft | 8 kts | 33° |
| 2026-05-08 18:23 | -19.54222 | -65.72059 | 12674 ft | 9 kts | 329° |
| 2026-05-08 18:23 | -19.54165 | -65.72102 | 12675 ft | 11 kts | 308° |
| 2026-05-08 18:23 | -19.54180 | -65.72165 | 12680 ft | 9 kts | 236° |
| 2026-05-08 18:23 | -19.54219 | -65.72227 | 12683 ft | 11 kts | 237° |
| 2026-05-08 18:24 | -19.54267 | -65.72304 | 12687 ft | 14 kts | 236° |
| 2026-05-08 18:24 | -19.54325 | -65.72397 | 12694 ft | 16 kts | 236° |
| 2026-05-08 18:24 | -19.54390 | -65.72497 | 12702 ft | 17 kts | 237° |
| 2026-05-08 18:24 | -19.54458 | -65.72606 | 12709 ft | 18 kts | 236° |
| 2026-05-08 18:25 | -19.54532 | -65.72722 | 12720 ft | 19 kts | 236° |
| 2026-05-08 18:25 | -19.54607 | -65.72840 | 12735 ft | 20 kts | 235° |
| 2026-05-08 18:25 | -19.54686 | -65.72964 | 12739 ft | 21 kts | 236° |
| 2026-05-08 18:25 | -19.54768 | -65.73093 | 12751 ft | 21 kts | 236° |
| 2026-05-08 18:26 | -19.54854 | -65.73226 | 12756 ft | 22 kts | 236° |
| 2026-05-08 18:26 | -19.54942 | -65.73364 | 12763 ft | 21 kts | 235° |
| 2026-05-08 18:26 | -19.55015 | -65.73466 | 12772 ft | 12 kts | 231° |
| 2026-05-08 18:26 | -19.55016 | -65.73494 | 12773 ft | 3 kts | 1° |
| 2026-05-08 18:27 | -19.55011 | -65.73486 | 12774 ft | 0 kts | 57° |
| 2026-05-08 18:27 | -19.54989 | -65.73450 | 12769 ft | 26 kts | 57° |
| 2026-05-08 18:27 | -19.54663 | -65.72928 | 12735 ft | 98 kts | 56° |
| 2026-05-08 18:27 | -19.54190 | -65.72186 | 12680 ft | 144 kts | 56° |
| 2026-05-08 18:28 | -19.53525 | -65.71201 | 12613 ft | 185 kts | 47° |
| 2026-05-08 18:28 | -19.52643 | -65.70114 | 12806 ft | 208 kts | 49° |
| 2026-05-08 18:28 | -19.51757 | -65.68786 | 12943 ft | 232 kts | 61° |
| 2026-05-08 18:28 | -19.51062 | -65.67194 | 13266 ft | 244 kts | 64° |
| 2026-05-08 18:29 | -19.50221 | -65.65563 | 13348 ft | 260 kts | 60° |
| 2026-05-08 18:29 | -19.49448 | -65.63740 | 13417 ft | 284 kts | 72° |
| 2026-05-08 18:29 | -19.48845 | -65.61648 | 13738 ft | 312 kts | 71° |
| 2026-05-08 18:29 | -19.48075 | -65.59386 | 14049 ft | 341 kts | 68° |
| 2026-05-08 18:30 | -19.47123 | -65.56994 | 14305 ft | 361 kts | 65° |
| 2026-05-08 18:30 | -19.46038 | -65.54528 | 14578 ft | 378 kts | 63° |
| 2026-05-08 18:30 | -19.44847 | -65.51987 | 14960 ft | 391 kts | 62° |
| 2026-05-08 18:30 | -19.43597 | -65.49382 | 15351 ft | 403 kts | 62° |
| 2026-05-08 18:31 | -19.42300 | -65.46713 | 15739 ft | 413 kts | 62° |
| 2026-05-08 18:31 | -19.41002 | -65.44003 | 16149 ft | 421 kts | 63° |
| 2026-05-08 18:31 | -19.39679 | -65.41203 | 16545 ft | 428 kts | 62° |
| 2026-05-08 18:31 | -19.38314 | -65.38370 | 16957 ft | 435 kts | 63° |
| 2026-05-08 18:32 | -19.36939 | -65.35496 | 17355 ft | 441 kts | 63° |
| 2026-05-08 18:32 | -19.35558 | -65.32575 | 17772 ft | 446 kts | 63° |
| 2026-05-08 18:32 | -19.34142 | -65.29627 | 18210 ft | 451 kts | 62° |
| 2026-05-08 18:32 | -19.32720 | -65.26644 | 18618 ft | 456 kts | 63° |
| 2026-05-08 18:33 | -19.31283 | -65.23633 | 18983 ft | 459 kts | 62° |
| 2026-05-08 18:33 | -19.29826 | -65.20612 | 19361 ft | 463 kts | 63° |
| 2026-05-08 18:33 | -19.28361 | -65.17560 | 19690 ft | 466 kts | 63° |
| 2026-05-08 18:33 | -19.26880 | -65.14497 | 20037 ft | 469 kts | 61° |
| 2026-05-08 18:34 | -19.25028 | -65.11669 | 20389 ft | 470 kts | 49° |
| 2026-05-08 18:34 | -19.22831 | -65.09090 | 20751 ft | 472 kts | 46° |
| 2026-05-08 18:34 | -19.20591 | -65.06591 | 21109 ft | 475 kts | 46° |
| 2026-05-08 18:34 | -19.18319 | -65.03971 | 21451 ft | 478 kts | 47° |
| 2026-05-08 18:35 | -19.16115 | -65.01317 | 21783 ft | 481 kts | 48° |
| 2026-05-08 18:35 | -19.13951 | -64.98667 | 22102 ft | 484 kts | 48° |
| 2026-05-08 18:35 | -19.11752 | -64.95965 | 22445 ft | 486 kts | 48° |
| 2026-05-08 18:35 | -19.09534 | -64.93245 | 22775 ft | 488 kts | 48° |
| 2026-05-08 18:36 | -19.07311 | -64.90519 | 23114 ft | 491 kts | 48° |
| 2026-05-08 18:36 | -19.05062 | -64.87799 | 23465 ft | 493 kts | 48° |
| 2026-05-08 18:36 | -19.02814 | -64.85049 | 23761 ft | 495 kts | 48° |
| 2026-05-08 18:36 | -19.00555 | -64.82294 | 24066 ft | 497 kts | 47° |
| 2026-05-08 18:37 | -18.98284 | -64.79525 | 24395 ft | 499 kts | 47° |
| 2026-05-08 18:37 | -18.95999 | -64.76752 | 24739 ft | 502 kts | 47° |
| 2026-05-08 18:37 | -18.93714 | -64.73957 | 25077 ft | 503 kts | 47° |
| 2026-05-08 18:37 | -18.91405 | -64.71155 | 25419 ft | 505 kts | 47° |
| 2026-05-08 18:38 | -18.89094 | -64.68354 | 25768 ft | 507 kts | 47° |
| 2026-05-08 18:38 | -18.86772 | -64.65531 | 26127 ft | 510 kts | 47° |
| 2026-05-08 18:38 | -18.84447 | -64.62692 | 26473 ft | 512 kts | 47° |
| 2026-05-08 18:38 | -18.82117 | -64.59836 | 26830 ft | 514 kts | 47° |
| 2026-05-08 18:39 | -18.79786 | -64.56970 | 27191 ft | 516 kts | 47° |
| 2026-05-08 18:39 | -18.77449 | -64.54085 | 27560 ft | 518 kts | 47° |
| 2026-05-08 18:39 | -18.75127 | -64.51202 | 27919 ft | 519 kts | 47° |
| 2026-05-08 18:39 | -18.72801 | -64.48344 | 28297 ft | 520 kts | 46° |
| 2026-05-08 18:40 | -18.70440 | -64.45433 | 28681 ft | 522 kts | 46° |
| 2026-05-08 18:40 | -18.68067 | -64.42516 | 29095 ft | 524 kts | 46° |
| 2026-05-08 18:40 | -18.65691 | -64.39602 | 29509 ft | 523 kts | 46° |
| 2026-05-08 18:40 | -18.63333 | -64.36696 | 29907 ft | 523 kts | 46° |
| 2026-05-08 18:41 | -18.60971 | -64.33776 | 30272 ft | 522 kts | 46° |
| 2026-05-08 18:41 | -18.58612 | -64.30850 | 30623 ft | 521 kts | 46° |
| 2026-05-08 18:41 | -18.56268 | -64.27930 | 30969 ft | 521 kts | 46° |
| 2026-05-08 18:41 | -18.53915 | -64.25031 | 31339 ft | 521 kts | 45° |
| 2026-05-08 18:42 | -18.52346 | -64.23124 | 31580 ft | 520 kts | 45° |
| 2026-05-08 18:42 | -18.49984 | -64.20250 | 31956 ft | 520 kts | 45° |
| 2026-05-08 18:42 | -18.47634 | -64.17351 | 32337 ft | 519 kts | 45° |
| 2026-05-08 18:42 | -18.45281 | -64.14479 | 32711 ft | 519 kts | 45° |
| 2026-05-08 18:43 | -18.42912 | -64.11599 | 33106 ft | 518 kts | 45° |
| 2026-05-08 18:43 | -18.40574 | -64.08725 | 33496 ft | 517 kts | 45° |
| 2026-05-08 18:43 | -18.38232 | -64.05863 | 33878 ft | 517 kts | 45° |
| 2026-05-08 18:43 | -18.35889 | -64.02994 | 34218 ft | 516 kts | 45° |
| 2026-05-08 18:44 | -18.33553 | -64.00141 | 34574 ft | 515 kts | 44° |
| 2026-05-08 18:44 | -18.31215 | -63.97283 | 34927 ft | 515 kts | 44° |
| 2026-05-08 18:44 | -18.28886 | -63.94421 | 35285 ft | 513 kts | 44° |
| 2026-05-08 18:44 | -18.26564 | -63.91566 | 35648 ft | 512 kts | 44° |
| 2026-05-08 18:45 | -18.24258 | -63.88711 | 36014 ft | 511 kts | 44° |
| 2026-05-08 18:45 | -18.21954 | -63.85887 | 36399 ft | 509 kts | 43° |
| 2026-05-08 18:45 | -18.19640 | -63.83071 | 36763 ft | 507 kts | 43° |
| 2026-05-08 18:45 | -18.17351 | -63.80277 | 36938 ft | 509 kts | 43° |
| 2026-05-08 18:46 | -18.12772 | -63.74665 | 37019 ft | 505 kts | 43° |
| 2026-05-08 18:46 | -18.08192 | -63.69070 | 37018 ft | 504 kts | 43° |
| 2026-05-08 18:47 | -18.03595 | -63.63495 | 37007 ft | 504 kts | 43° |
| 2026-05-08 18:47 | -17.98993 | -63.57939 | 37019 ft | 504 kts | 43° |
| 2026-05-08 18:48 | -17.94413 | -63.52379 | 37015 ft | 504 kts | 43° |
| 2026-05-08 18:48 | -17.89806 | -63.46825 | 37006 ft | 503 kts | 43° |
| 2026-05-08 18:49 | -17.85240 | -63.41284 | 37013 ft | 502 kts | 43° |
| 2026-05-08 18:49 | -17.80656 | -63.35768 | 36996 ft | 501 kts | 43° |
| 2026-05-08 18:50 | -17.76081 | -63.30255 | 36995 ft | 501 kts | 43° |
| 2026-05-08 18:50 | -17.71532 | -63.24780 | 36999 ft | 500 kts | 43° |
| 2026-05-08 18:51 | -17.66963 | -63.19297 | 36969 ft | 499 kts | 43° |
| 2026-05-08 18:51 | -17.64869 | -63.16367 | 36974 ft | 506 kts | 55° |
| 2026-05-08 18:51 | -17.63553 | -63.12926 | 37004 ft | 516 kts | 75° |
| 2026-05-08 18:52 | -17.63301 | -63.09149 | 37015 ft | 525 kts | 94° |
| 2026-05-08 18:52 | -17.64158 | -63.05427 | 37020 ft | 528 kts | 111° |
| 2026-05-08 18:52 | -17.67108 | -62.98347 | 36989 ft | 532 kts | 110° |
| 2026-05-08 18:53 | -17.69341 | -62.90955 | 36993 ft | 531 kts | 104° |
| 2026-05-08 18:53 | -17.71280 | -62.83467 | 36999 ft | 531 kts | 104° |
| 2026-05-08 18:54 | -17.73311 | -62.76057 | 37009 ft | 532 kts | 105° |
| 2026-05-08 18:54 | -17.75353 | -62.68597 | 37015 ft | 531 kts | 105° |
| 2026-05-08 18:55 | -17.78417 | -62.57419 | 37016 ft | 531 kts | 105° |
| 2026-05-08 18:56 | -17.80457 | -62.49958 | 37018 ft | 531 kts | 105° |
| 2026-05-08 18:56 | -17.82493 | -62.42503 | 37022 ft | 530 kts | 104° |
| 2026-05-08 18:57 | -17.84505 | -62.35100 | 37025 ft | 530 kts | 105° |
| 2026-05-08 18:57 | -17.86525 | -62.27664 | 37025 ft | 530 kts | 105° |
| 2026-05-08 18:58 | -17.88543 | -62.20233 | 37028 ft | 529 kts | 104° |
| 2026-05-08 18:58 | -17.90560 | -62.12787 | 37049 ft | 530 kts | 105° |
| 2026-05-08 18:59 | -17.92563 | -62.05357 | 37037 ft | 529 kts | 105° |
| 2026-05-08 18:59 | -17.94567 | -61.97928 | 37030 ft | 529 kts | 104° |
| 2026-05-08 19:00 | -17.96582 | -61.90486 | 37031 ft | 529 kts | 104° |
| 2026-05-08 19:00 | -17.98576 | -61.83037 | 37042 ft | 529 kts | 104° |
| 2026-05-08 19:01 | -18.00568 | -61.75603 | 37045 ft | 529 kts | 104° |
| 2026-05-08 19:01 | -18.02567 | -61.68161 | 37030 ft | 528 kts | 104° |
| 2026-05-08 19:02 | -18.04577 | -61.60791 | 37041 ft | 528 kts | 105° |
| 2026-05-08 19:02 | -18.06592 | -61.53369 | 37046 ft | 528 kts | 105° |
| 2026-05-08 19:03 | -18.08612 | -61.45951 | 37051 ft | 528 kts | 105° |
| 2026-05-08 19:03 | -18.10659 | -61.38532 | 37048 ft | 528 kts | 105° |
| 2026-05-08 19:04 | -18.12721 | -61.31125 | 37054 ft | 528 kts | 105° |
| 2026-05-08 19:04 | -18.14792 | -61.23709 | 37056 ft | 528 kts | 105° |
| 2026-05-08 19:05 | -18.16856 | -61.16309 | 37049 ft | 527 kts | 105° |
| 2026-05-08 19:05 | -18.18925 | -61.08901 | 37044 ft | 527 kts | 105° |
| 2026-05-08 19:06 | -18.20983 | -61.01545 | 37042 ft | 527 kts | 105° |
| 2026-05-08 19:06 | -18.23052 | -60.94142 | 37057 ft | 527 kts | 105° |
| 2026-05-08 19:07 | -18.25099 | -60.86746 | 37054 ft | 527 kts | 105° |
| 2026-05-08 19:07 | -18.27152 | -60.79342 | 37049 ft | 527 kts | 105° |
| 2026-05-08 19:08 | -18.29205 | -60.71935 | 37044 ft | 526 kts | 105° |
| 2026-05-08 19:08 | -18.31253 | -60.64543 | 37061 ft | 526 kts | 105° |
| 2026-05-08 19:09 | -18.33295 | -60.57156 | 37060 ft | 526 kts | 105° |
| 2026-05-08 19:09 | -18.35321 | -60.49811 | 37052 ft | 526 kts | 105° |
| 2026-05-08 19:10 | -18.37354 | -60.42426 | 37061 ft | 526 kts | 105° |
| 2026-05-08 19:10 | -18.39388 | -60.35026 | 37051 ft | 526 kts | 105° |
| 2026-05-08 19:11 | -18.41417 | -60.27634 | 37066 ft | 526 kts | 105° |
| 2026-05-08 19:11 | -18.43442 | -60.20242 | 37067 ft | 525 kts | 105° |
| 2026-05-08 19:12 | -18.45465 | -60.12847 | 37054 ft | 525 kts | 105° |
| 2026-05-08 19:12 | -18.47480 | -60.05469 | 37049 ft | 524 kts | 105° |
| 2026-05-08 19:13 | -18.49495 | -59.98078 | 37046 ft | 524 kts | 105° |
| 2026-05-08 19:13 | -18.51485 | -59.90755 | 37068 ft | 524 kts | 105° |
| 2026-05-08 19:14 | -18.53490 | -59.83376 | 37055 ft | 524 kts | 105° |
| 2026-05-08 19:14 | -18.55490 | -59.75994 | 37055 ft | 524 kts | 105° |
| 2026-05-08 19:15 | -18.57498 | -59.68582 | 37046 ft | 524 kts | 105° |
| 2026-05-08 19:15 | -18.59497 | -59.61191 | 37039 ft | 525 kts | 105° |
| 2026-05-08 19:16 | -18.61488 | -59.53793 | 37041 ft | 525 kts | 105° |
| 2026-05-08 19:16 | -18.63484 | -59.46395 | 37036 ft | 525 kts | 105° |
| 2026-05-08 19:17 | -18.65476 | -59.38986 | 37032 ft | 524 kts | 105° |
| 2026-05-08 19:17 | -18.67464 | -59.31577 | 37028 ft | 524 kts | 105° |
| 2026-05-08 19:18 | -18.69434 | -59.24230 | 37021 ft | 524 kts | 105° |
| 2026-05-08 19:18 | -18.71410 | -59.16813 | 37022 ft | 525 kts | 105° |
| 2026-05-08 19:19 | -18.73396 | -59.09393 | 37012 ft | 525 kts | 105° |
| 2026-05-08 19:19 | -18.75373 | -59.01981 | 36948 ft | 525 kts | 105° |
| 2026-05-08 19:20 | -18.77343 | -58.94563 | 36945 ft | 525 kts | 105° |
| 2026-05-08 19:20 | -18.79309 | -58.87130 | 36940 ft | 525 kts | 105° |
| 2026-05-08 19:21 | -18.81262 | -58.79706 | 36940 ft | 525 kts | 105° |
| 2026-05-08 19:21 | -18.83204 | -58.72283 | 36942 ft | 525 kts | 104° |
| 2026-05-08 19:22 | -18.85156 | -58.64851 | 36939 ft | 525 kts | 105° |
| 2026-05-08 19:22 | -18.87095 | -58.57480 | 36936 ft | 525 kts | 105° |
| 2026-05-08 19:23 | -18.89102 | -58.50056 | 36935 ft | 525 kts | 105° |
| 2026-05-08 19:23 | -18.91115 | -58.42639 | 36940 ft | 526 kts | 105° |
| 2026-05-08 19:24 | -18.93122 | -58.35217 | 36937 ft | 526 kts | 105° |
| 2026-05-08 19:24 | -18.95130 | -58.27779 | 36935 ft | 526 kts | 105° |
| 2026-05-08 19:25 | -18.97169 | -58.20364 | 36933 ft | 526 kts | 105° |
| 2026-05-08 19:25 | -18.99192 | -58.12932 | 36916 ft | 526 kts | 106° |
| 2026-05-08 19:26 | -19.01216 | -58.05514 | 36907 ft | 526 kts | 106° |
| 2026-05-08 19:26 | -19.03238 | -57.98096 | 36902 ft | 526 kts | 106° |
| 2026-05-08 19:27 | -19.05259 | -57.90663 | 36886 ft | 526 kts | 106° |
| 2026-05-08 19:27 | -19.07284 | -57.83238 | 36884 ft | 526 kts | 105° |
| 2026-05-08 19:28 | -19.09425 | -57.75915 | 36906 ft | 518 kts | 109° |
| 2026-05-08 19:28 | -19.11870 | -57.68791 | 36919 ft | 516 kts | 110° |
| 2026-05-08 19:29 | -19.14284 | -57.61644 | 36922 ft | 515 kts | 109° |
| 2026-05-08 19:29 | -19.16662 | -57.54481 | 36913 ft | 515 kts | 110° |
| 2026-05-08 19:30 | -19.19040 | -57.47329 | 36908 ft | 516 kts | 110° |
| 2026-05-08 19:30 | -19.21012 | -57.41387 | 36903 ft | 516 kts | 109° |
| 2026-05-08 19:31 | -19.23396 | -57.34224 | 36905 ft | 515 kts | 109° |
| 2026-05-08 19:31 | -19.25759 | -57.27078 | 36896 ft | 514 kts | 110° |
| 2026-05-08 19:32 | -19.28129 | -57.19931 | 36890 ft | 514 kts | 109° |
| 2026-05-08 19:32 | -19.30479 | -57.12795 | 36891 ft | 514 kts | 110° |
| 2026-05-08 19:33 | -19.32838 | -57.05642 | 36908 ft | 514 kts | 109° |
| 2026-05-08 19:33 | -19.35207 | -56.98487 | 36933 ft | 515 kts | 111° |
| 2026-05-08 19:34 | -19.38263 | -56.91658 | 36901 ft | 514 kts | 120° |
| 2026-05-08 19:34 | -19.41676 | -56.85048 | 36886 ft | 515 kts | 120° |
| 2026-05-08 19:35 | -19.45003 | -56.78329 | 36886 ft | 515 kts | 118° |
| 2026-05-08 19:35 | -19.48293 | -56.71572 | 36907 ft | 516 kts | 118° |
| 2026-05-08 19:36 | -19.51594 | -56.64819 | 36875 ft | 515 kts | 119° |
| 2026-05-08 19:36 | -19.54888 | -56.58069 | 36479 ft | 515 kts | 119° |
| 2026-05-08 19:36 | -19.56538 | -56.54709 | 36087 ft | 511 kts | 118° |
| 2026-05-08 19:37 | -19.58159 | -56.51371 | 35694 ft | 506 kts | 119° |
| 2026-05-08 19:37 | -19.59755 | -56.48122 | 35305 ft | 500 kts | 119° |
| 2026-05-08 19:37 | -19.61341 | -56.44849 | 34914 ft | 497 kts | 119° |
| 2026-05-08 19:37 | -19.62924 | -56.41602 | 34532 ft | 493 kts | 119° |
| 2026-05-08 19:38 | -19.64499 | -56.38367 | 34156 ft | 489 kts | 119° |
| 2026-05-08 19:38 | -19.66044 | -56.35175 | 33787 ft | 485 kts | 119° |
| 2026-05-08 19:38 | -19.67572 | -56.31999 | 33357 ft | 481 kts | 119° |
| 2026-05-08 19:38 | -19.69081 | -56.28851 | 32950 ft | 476 kts | 119° |
| 2026-05-08 19:39 | -19.70565 | -56.25745 | 32548 ft | 470 kts | 120° |
| 2026-05-08 19:39 | -19.72056 | -56.22685 | 32143 ft | 464 kts | 120° |
| 2026-05-08 19:39 | -19.73537 | -56.19660 | 31747 ft | 459 kts | 120° |
| 2026-05-08 19:39 | -19.74985 | -56.16650 | 31359 ft | 455 kts | 120° |
| 2026-05-08 19:40 | -19.76431 | -56.13682 | 30979 ft | 452 kts | 120° |
| 2026-05-08 19:40 | -19.77858 | -56.10752 | 30601 ft | 449 kts | 120° |
| 2026-05-08 19:40 | -19.79298 | -56.07778 | 30222 ft | 446 kts | 120° |
| 2026-05-08 19:40 | -19.80698 | -56.04891 | 29853 ft | 444 kts | 120° |
| 2026-05-08 19:41 | -19.82114 | -56.01977 | 29415 ft | 441 kts | 120° |
| 2026-05-08 19:41 | -19.83500 | -55.99099 | 28988 ft | 438 kts | 120° |
| 2026-05-08 19:41 | -19.84902 | -55.96227 | 28514 ft | 436 kts | 119° |
| 2026-05-08 19:41 | -19.86279 | -55.93367 | 28044 ft | 432 kts | 119° |
| 2026-05-08 19:42 | -19.87650 | -55.90547 | 27598 ft | 429 kts | 119° |
| 2026-05-08 19:42 | -19.89009 | -55.87739 | 27148 ft | 425 kts | 119° |
| 2026-05-08 19:42 | -19.90361 | -55.84944 | 26699 ft | 422 kts | 119° |
| 2026-05-08 19:42 | -19.91697 | -55.82191 | 26258 ft | 418 kts | 119° |
| 2026-05-08 19:43 | -19.93031 | -55.79452 | 25835 ft | 415 kts | 119° |
| 2026-05-08 19:43 | -19.94359 | -55.76736 | 25412 ft | 412 kts | 119° |
| 2026-05-08 19:43 | -19.95684 | -55.74037 | 24995 ft | 409 kts | 119° |
| 2026-05-08 19:43 | -19.96995 | -55.71365 | 24582 ft | 406 kts | 118° |
| 2026-05-08 19:44 | -19.98277 | -55.68699 | 24176 ft | 404 kts | 118° |
| 2026-05-08 19:44 | -19.99543 | -55.66061 | 23785 ft | 400 kts | 118° |
| 2026-05-08 19:44 | -20.00809 | -55.63433 | 23378 ft | 397 kts | 118° |
| 2026-05-08 19:44 | -20.01987 | -55.60785 | 22918 ft | 394 kts | 112° |
| 2026-05-08 19:45 | -20.02919 | -55.58093 | 22457 ft | 391 kts | 108° |
| 2026-05-08 19:45 | -20.03794 | -55.55331 | 22006 ft | 388 kts | 108° |
| 2026-05-08 19:45 | -20.04641 | -55.52610 | 21567 ft | 386 kts | 108° |
| 2026-05-08 19:45 | -20.05468 | -55.49944 | 21118 ft | 383 kts | 108° |
| 2026-05-08 19:46 | -20.06295 | -55.47269 | 20689 ft | 380 kts | 108° |
| 2026-05-08 19:46 | -20.07135 | -55.44601 | 20253 ft | 377 kts | 109° |
| 2026-05-08 19:46 | -20.08805 | -55.39354 | 19428 ft | 372 kts | 108° |
| 2026-05-08 19:47 | -20.09636 | -55.36763 | 19027 ft | 370 kts | 108° |
| 2026-05-08 19:47 | -20.10451 | -55.34172 | 18628 ft | 368 kts | 108° |
| 2026-05-08 19:47 | -20.11273 | -55.31604 | 18230 ft | 365 kts | 108° |
| 2026-05-08 19:47 | -20.12075 | -55.29057 | 17773 ft | 363 kts | 108° |
| 2026-05-08 19:48 | -20.12886 | -55.26523 | 17305 ft | 360 kts | 108° |
| 2026-05-08 19:48 | -20.13681 | -55.23998 | 16845 ft | 358 kts | 108° |
| 2026-05-08 19:48 | -20.14479 | -55.21500 | 16342 ft | 355 kts | 108° |
| 2026-05-08 19:48 | -20.15272 | -55.19014 | 15856 ft | 353 kts | 108° |
| 2026-05-08 19:49 | -20.16063 | -55.16545 | 15390 ft | 352 kts | 107° |
| 2026-05-08 19:49 | -20.16860 | -55.14082 | 14985 ft | 350 kts | 107° |
| 2026-05-08 19:49 | -20.17655 | -55.11642 | 14583 ft | 348 kts | 108° |
| 2026-05-08 19:49 | -20.18446 | -55.09214 | 14198 ft | 346 kts | 107° |
| 2026-05-08 19:50 | -20.19212 | -55.06793 | 13815 ft | 344 kts | 107° |
| 2026-05-08 19:50 | -20.19961 | -55.04418 | 13361 ft | 341 kts | 107° |
| 2026-05-08 19:50 | -20.20726 | -55.02006 | 12896 ft | 338 kts | 107° |
| 2026-05-08 19:50 | -20.21464 | -54.99678 | 12439 ft | 335 kts | 107° |
| 2026-05-08 19:51 | -20.22208 | -54.97335 | 11977 ft | 332 kts | 106° |
| 2026-05-08 19:51 | -20.22950 | -54.95016 | 11550 ft | 329 kts | 107° |
| 2026-05-08 19:51 | -20.23686 | -54.92717 | 11125 ft | 327 kts | 107° |
| 2026-05-08 19:51 | -20.24416 | -54.90436 | 10694 ft | 324 kts | 107° |
| 2026-05-08 19:52 | -20.25140 | -54.88171 | 10268 ft | 321 kts | 106° |
| 2026-05-08 19:52 | -20.25840 | -54.85922 | 9859 ft | 319 kts | 106° |
| 2026-05-08 19:52 | -20.26548 | -54.83691 | 9412 ft | 316 kts | 105° |
| 2026-05-08 19:52 | -20.27239 | -54.81475 | 8962 ft | 314 kts | 105° |
| 2026-05-08 19:53 | -20.27931 | -54.79276 | 8523 ft | 312 kts | 105° |
| 2026-05-08 19:53 | -20.28631 | -54.77095 | 8077 ft | 310 kts | 105° |
| 2026-05-08 19:53 | -20.29338 | -54.74928 | 7639 ft | 309 kts | 105° |
| 2026-05-08 19:53 | -20.30049 | -54.72776 | 7222 ft | 307 kts | 105° |
| 2026-05-08 19:54 | -20.30744 | -54.70626 | 6801 ft | 305 kts | 104° |
| 2026-05-08 19:54 | -20.31466 | -54.68533 | 6414 ft | 304 kts | 105° |
| 2026-05-08 19:54 | -20.31967 | -54.66390 | 5983 ft | 293 kts | 99° |
| 2026-05-08 19:54 | -20.32665 | -54.64385 | 5562 ft | 285 kts | 109° |
| 2026-05-08 19:55 | -20.33485 | -54.62519 | 5235 ft | 272 kts | 114° |
| 2026-05-08 19:55 | -20.34683 | -54.61021 | 4917 ft | 262 kts | 146° |
| 2026-05-08 19:55 | -20.36306 | -54.60347 | 4640 ft | 242 kts | 177° |
| 2026-05-08 19:55 | -20.37937 | -54.60222 | 4385 ft | 229 kts | 181° |
| 2026-05-08 19:56 | -20.39494 | -54.60179 | 4112 ft | 217 kts | 192° |
| 2026-05-08 19:56 | -20.40802 | -54.60728 | 3849 ft | 191 kts | 223° |
| 2026-05-08 19:56 | -20.41794 | -54.61565 | 3519 ft | 174 kts | 229° |
| 2026-05-08 19:56 | -20.42637 | -54.62406 | 3206 ft | 161 kts | 233° |
| 2026-05-08 19:57 | -20.43408 | -54.63236 | 2862 ft | 153 kts | 233° |
| 2026-05-08 19:57 | -20.44099 | -54.64059 | 2505 ft | 144 kts | 237° |
| 2026-05-08 19:57 | -20.44696 | -54.64829 | 2123 ft | 124 kts | 238° |
| 2026-05-08 19:57 | -20.45170 | -54.65577 | 2216 ft | 127 kts | 237° |
| 2026-05-08 19:58 | -20.45903 | -54.66339 | 2044 ft | 160 kts | 226° |
| 2026-05-08 19:58 | -20.46674 | -54.67074 | 1876 ft | 136 kts | 228° |
| 2026-05-08 19:58 | -20.47359 | -54.67737 | 1878 ft | 134 kts | 226° |
| 2026-05-08 19:58 | -20.48032 | -54.68357 | 2100 ft | 128 kts | 223° |
| 2026-05-08 19:59 | -20.48760 | -54.69046 | 2210 ft | 160 kts | 233° |
| 2026-05-08 19:59 | -20.49636 | -54.70112 | 2067 ft | 213 kts | 230° |
| 2026-05-08 19:59 | -20.50616 | -54.71308 | 2151 ft | 219 kts | 232° |
| 2026-05-08 19:59 | -20.51676 | -54.72605 | 2487 ft | 251 kts | 232° |
| 2026-05-08 20:00 | -20.52900 | -54.74077 | 2489 ft | 266 kts | 231° |
| 2026-05-08 20:00 | -20.54101 | -54.75491 | 2967 ft | 246 kts | 232° |
| 2026-05-08 20:00 | -20.55263 | -54.76771 | 3465 ft | 238 kts | 231° |
| 2026-05-08 20:00 | -20.56678 | -54.77761 | 3789 ft | 253 kts | 205° |
| 2026-05-08 20:01 | -20.58447 | -54.77962 | 3915 ft | 262 kts | 173° |
| 2026-05-08 20:01 | -20.60149 | -54.77232 | 3956 ft | 269 kts | 142° |
| 2026-05-08 20:01 | -20.61331 | -54.75734 | 3970 ft | 263 kts | 111° |
| 2026-05-08 20:01 | -20.61689 | -54.73870 | 3981 ft | 254 kts | 79° |
| 2026-05-08 20:02 | -20.61181 | -54.72148 | 3997 ft | 238 kts | 49° |
| 2026-05-08 20:02 | -20.60192 | -54.70755 | 4011 ft | 236 kts | 42° |
| 2026-05-08 20:02 | -20.59139 | -54.69410 | 4009 ft | 235 kts | 42° |
| 2026-05-08 20:02 | -20.58075 | -54.68087 | 4004 ft | 235 kts | 41° |
| 2026-05-08 20:03 | -20.57005 | -54.66770 | 4020 ft | 235 kts | 41° |
| 2026-05-08 20:03 | -20.55933 | -54.65444 | 4025 ft | 237 kts | 41° |
| 2026-05-08 20:03 | -20.54861 | -54.64113 | 4016 ft | 237 kts | 42° |
| 2026-05-08 20:03 | -20.53783 | -54.62781 | 4004 ft | 237 kts | 41° |
| 2026-05-08 20:04 | -20.52702 | -54.61455 | 4001 ft | 236 kts | 41° |
| 2026-05-08 20:04 | -20.51633 | -54.60157 | 4005 ft | 236 kts | 41° |
| 2026-05-08 20:04 | -20.50551 | -54.58846 | 4005 ft | 235 kts | 41° |
| 2026-05-08 20:04 | -20.49468 | -54.57524 | 4027 ft | 238 kts | 42° |
| 2026-05-08 20:05 | -20.48375 | -54.56207 | 4028 ft | 235 kts | 41° |
| 2026-05-08 20:05 | -20.47324 | -54.54940 | 4019 ft | 221 kts | 41° |
| 2026-05-08 20:05 | -20.46335 | -54.53721 | 4028 ft | 213 kts | 41° |
| 2026-05-08 20:05 | -20.45422 | -54.52550 | 4052 ft | 200 kts | 41° |
| 2026-05-08 20:06 | -20.44544 | -54.51412 | 4062 ft | 199 kts | 42° |
| 2026-05-08 20:06 | -20.43545 | -54.50484 | 4072 ft | 184 kts | 15° |
| 2026-05-08 20:06 | -20.42359 | -54.50412 | 4102 ft | 161 kts | 337° |
| 2026-05-08 20:06 | -20.41603 | -54.51163 | 4129 ft | 154 kts | 296° |
| 2026-05-08 20:07 | -20.41631 | -54.52301 | 4136 ft | 163 kts | 256° |
| 2026-05-08 20:07 | -20.42025 | -54.53432 | 4067 ft | 160 kts | 260° |
| 2026-05-08 20:07 | -20.42361 | -54.54507 | 3824 ft | 144 kts | 267° |
| 2026-05-08 20:07 | -20.42367 | -54.55509 | 3612 ft | 133 kts | 284° |
| 2026-05-08 20:08 | -20.42154 | -54.56433 | 3388 ft | 128 kts | 292° |
| 2026-05-08 20:08 | -20.41928 | -54.57356 | 3146 ft | 128 kts | 291° |
| 2026-05-08 20:08 | -20.41699 | -54.58269 | 2907 ft | 127 kts | 291° |
| 2026-05-08 20:08 | -20.41495 | -54.59186 | 2791 ft | 133 kts | 273° |
| 2026-05-08 20:09 | -20.41829 | -54.60109 | 2695 ft | 138 kts | 251° |
| 2026-05-08 20:09 | -20.42238 | -54.61037 | 2523 ft | 137 kts | 251° |
| 2026-05-08 20:09 | -20.42613 | -54.61990 | 2362 ft | 139 kts | 251° |
| 2026-05-08 20:09 | -20.42956 | -54.62965 | 2171 ft | 140 kts | 252° |
| 2026-05-08 20:10 | -20.43294 | -54.63938 | 2198 ft | 144 kts | 251° |
| 2026-05-08 20:10 | -20.43696 | -54.64884 | 2201 ft | 143 kts | 229° |
| 2026-05-08 20:10 | -20.44466 | -54.65518 | 2243 ft | 142 kts | 217° |
| 2026-05-08 20:10 | -20.45240 | -54.66197 | 2386 ft | 143 kts | 229° |
| 2026-05-08 20:11 | -20.46105 | -54.66743 | 2282 ft | 152 kts | 204° |
| 2026-05-08 20:11 | -20.47013 | -54.67221 | 2088 ft | 136 kts | 222° |
| 2026-05-08 20:11 | -20.47685 | -54.67993 | 2239 ft | 148 kts | 236° |
| 2026-05-08 20:11 | -20.48295 | -54.68981 | 2548 ft | 170 kts | 239° |
| 2026-05-08 20:12 | -20.49159 | -54.70136 | 2410 ft | 233 kts | 227° |
| 2026-05-08 20:12 | -20.50388 | -54.71395 | 2530 ft | 261 kts | 228° |
| 2026-05-08 20:12 | -20.51739 | -54.72806 | 2770 ft | 280 kts | 230° |
| 2026-05-08 20:12 | -20.53049 | -54.74341 | 2790 ft | 278 kts | 234° |
| 2026-05-08 20:13 | -20.54345 | -54.75828 | 3016 ft | 269 kts | 230° |
| 2026-05-08 20:13 | -20.55652 | -54.77220 | 3269 ft | 261 kts | 230° |
| 2026-05-08 20:13 | -20.56922 | -54.78531 | 3519 ft | 254 kts | 230° |
| 2026-05-08 20:13 | -20.58188 | -54.79799 | 3764 ft | 247 kts | 230° |
| 2026-05-08 20:14 | -20.59444 | -54.81036 | 3891 ft | 245 kts | 230° |
| 2026-05-08 20:14 | -20.60704 | -54.82267 | 3947 ft | 246 kts | 230° |
| 2026-05-08 20:14 | -20.61960 | -54.83525 | 3987 ft | 247 kts | 236° |
| 2026-05-08 20:14 | -20.62726 | -54.85084 | 3996 ft | 233 kts | 266° |
| 2026-05-08 20:15 | -20.62748 | -54.86778 | 4014 ft | 229 kts | 281° |
| 2026-05-08 20:15 | -20.62586 | -54.88479 | 3976 ft | 232 kts | 282° |
| 2026-05-08 20:15 | -20.62405 | -54.90201 | 3970 ft | 234 kts | 282° |
| 2026-05-08 20:15 | -20.62545 | -54.91951 | 3956 ft | 246 kts | 256° |
| 2026-05-08 20:16 | -20.63511 | -54.93437 | 3957 ft | 245 kts | 226° |
| 2026-05-08 20:16 | -20.65009 | -54.94159 | 3962 ft | 232 kts | 191° |
| 2026-05-08 20:16 | -20.66569 | -54.93918 | 4000 ft | 230 kts | 156° |
| 2026-05-08 20:16 | -20.67729 | -54.92875 | 3980 ft | 206 kts | 115° |
| 2026-05-08 20:17 | -20.68060 | -54.91537 | 4011 ft | 174 kts | 71° |
| 2026-05-08 20:17 | -20.67607 | -54.90486 | 4090 ft | 148 kts | 38° |
| 2026-05-08 20:17 | -20.67167 | -54.89929 | 4077 ft | 149 kts | 37° |
| 2026-05-08 20:17 | -20.66333 | -54.88744 | 3746 ft | 152 kts | 45° |
| 2026-05-08 20:18 | -20.65954 | -54.88098 | 3557 ft | 153 kts | 46° |
| 2026-05-08 20:18 | -20.65238 | -54.86799 | 3213 ft | 152 kts | 47° |
| 2026-05-08 20:18 | -20.64693 | -54.85846 | 3111 ft | 149 kts | 47° |
| 2026-05-08 20:18 | -20.64134 | -54.84918 | 3109 ft | 149 kts | 47° |
| 2026-05-08 20:19 | -20.63751 | -54.84304 | 3109 ft | 149 kts | 44° |
| 2026-05-08 20:19 | -20.63126 | -54.83430 | 3132 ft | 148 kts | 42° |
| 2026-05-08 20:19 | -20.62499 | -54.82559 | 3144 ft | 149 kts | 42° |
| 2026-05-08 20:19 | -20.61852 | -54.81692 | 3163 ft | 148 kts | 39° |
| 2026-05-08 20:20 | -20.61155 | -54.80886 | 3177 ft | 146 kts | 35° |
| 2026-05-08 20:20 | -20.60435 | -54.80112 | 3192 ft | 147 kts | 35° |
| 2026-05-08 20:20 | -20.59705 | -54.79334 | 3205 ft | 148 kts | 34° |
| 2026-05-08 20:20 | -20.58969 | -54.78581 | 3206 ft | 145 kts | 33° |
| 2026-05-08 20:21 | -20.58225 | -54.77869 | 3215 ft | 144 kts | 31° |
| 2026-05-08 20:21 | -20.57469 | -54.77177 | 3238 ft | 143 kts | 29° |
| 2026-05-08 20:21 | -20.56699 | -54.76523 | 3257 ft | 141 kts | 27° |
| 2026-05-08 20:21 | -20.55914 | -54.75892 | 3257 ft | 143 kts | 29° |
| 2026-05-08 20:22 | -20.55150 | -54.75213 | 3183 ft | 145 kts | 31° |
| 2026-05-08 20:22 | -20.54360 | -54.74506 | 3120 ft | 147 kts | 31° |
| 2026-05-08 20:22 | -20.53580 | -54.73813 | 2992 ft | 147 kts | 31° |
| 2026-05-08 20:22 | -20.52786 | -54.73121 | 2898 ft | 148 kts | 32° |
| 2026-05-08 20:23 | -20.52030 | -54.72374 | 2787 ft | 149 kts | 33° |
| 2026-05-08 20:23 | -20.51298 | -54.71596 | 2631 ft | 149 kts | 36° |
| 2026-05-08 20:23 | -20.50547 | -54.70847 | 2437 ft | 148 kts | 36° |
| 2026-05-08 20:23 | -20.49776 | -54.70132 | 2284 ft | 146 kts | 37° |
| 2026-05-08 20:24 | -20.49018 | -54.69431 | 2050 ft | 144 kts | 41° |
| 2026-05-08 20:24 | -20.48318 | -54.68684 | 1898 ft | 140 kts | 43° |
| 2026-05-08 20:24 | -20.47616 | -54.67997 | 1827 ft | 133 kts | 40° |
| 2026-05-08 20:24 | -20.47107 | -54.67508 | 1832 ft | 56 kts | 43° |
| 2026-05-08 20:25 | -20.46888 | -54.67293 | 1837 ft | 40 kts | 41° |
| 2026-05-08 20:25 | -20.46685 | -54.67096 | 1840 ft | 40 kts | 41° |
| 2026-05-08 20:25 | -20.46480 | -54.66900 | 1842 ft | 40 kts | 43° |
| 2026-05-08 20:25 | -20.46282 | -54.66709 | 1845 ft | 33 kts | 42° |
| 2026-05-08 20:26 | -20.46130 | -54.66607 | 1849 ft | 22 kts | 351° |
| 2026-05-08 20:26 | -20.45998 | -54.66652 | 1849 ft | 19 kts | 339° |
| 2026-05-08 20:26 | -20.45885 | -54.66703 | 1849 ft | 13 kts | 339° |
| 2026-05-08 20:26 | -20.45808 | -54.66733 | 1849 ft | 11 kts | 340° |
| 2026-05-08 20:27 | -20.45776 | -54.66743 | 1849 ft | 0 kts | 358° |